Time;durP1;ratioP1;P1;durP2;ratioP2;P2;SDS_P1;SDS_P2;PMS_P1;PMS_P2;Temp;Humidity;BMP_temperature;BMP_pressure;BME280_temperature;BME280_humidity;BME280_pressure;Samples;Min_cycle;Max_cycle;Signal;HPM_P1;HPM_P2
2022/03/11 00:02:20;;;;;;;19.85;13.85;;;6.70;82.30;;;;;;4987583;28;20133;-74
2022/03/11 00:04:47;;;;;;;18.50;14.55;;;6.70;82.80;;;;;;4974222;28;20119;-73
2022/03/11 00:07:31;;;;;;;18.67;13.90;;;6.60;83.20;;;;;;5010438;28;20203;-74
2022/03/11 00:09:57;;;;;;;18.83;13.85;;;6.60;83.80;;;;;;4988745;28;20038;-74
2022/03/11 00:12:24;;;;;;;18.23;14.10;;;6.60;83.90;;;;;;4982607;28;20057;-75
2022/03/11 00:14:51;;;;;;;17.35;14.15;;;6.50;85.20;;;;;;4985920;28;20096;-74
2022/03/11 00:17:16;;;;;;;15.90;13.30;;;6.40;85.80;;;;;;4957987;28;20133;-75
2022/03/11 00:19:42;;;;;;;17.77;13.27;;;6.40;86.40;;;;;;4979283;28;20124;-73
2022/03/11 00:22:08;;;;;;;18.55;13.95;;;6.30;86.60;;;;;;4984496;28;20038;-75
2022/03/11 00:24:34;;;;;;;18.35;13.27;;;6.30;87.60;;;;;;4998609;28;20050;-73
2022/03/11 00:27:00;;;;;;;17.25;12.80;;;6.30;87.50;;;;;;4997195;28;20050;-74
2022/03/11 00:29:28;;;;;;;19.15;12.95;;;6.20;87.80;;;;;;4975033;28;20048;-74
2022/03/11 00:31:53;;;;;;;15.32;12.68;;;6.30;87.80;;;;;;4975123;28;20679;-76
2022/03/11 00:34:19;;;;;;;16.02;12.50;;;6.30;88.20;;;;;;4993905;28;20049;-75
2022/03/11 00:36:45;;;;;;;17.63;12.77;;;6.20;88.30;;;;;;4987063;28;20042;-75
2022/03/11 00:39:11;;;;;;;15.68;12.50;;;6.20;88.70;;;;;;4977902;28;20058;-75
2022/03/11 00:41:37;;;;;;;19.02;12.45;;;6.00;89.50;;;;;;4975239;28;20046;-75
2022/03/11 00:44:03;;;;;;;15.75;12.68;;;6.10;90.00;;;;;;5005497;28;20049;-74
2022/03/11 00:46:29;;;;;;;16.40;12.07;;;6.10;89.90;;;;;;5004687;28;20124;-75
2022/03/11 00:48:55;;;;;;;15.20;11.93;;;6.10;90.10;;;;;;4996637;28;20125;-75
2022/03/11 00:51:21;;;;;;;15.90;12.23;;;6.10;90.00;;;;;;4972823;28;20052;-75
2022/03/11 00:53:47;;;;;;;17.88;12.45;;;6.10;90.10;;;;;;4983500;28;20050;-75
2022/03/11 00:56:13;;;;;;;17.45;11.70;;;6.00;90.10;;;;;;4968554;28;20038;-78
2022/03/11 00:58:38;;;;;;;18.63;12.25;;;6.00;90.40;;;;;;4981489;28;20493;-75
2022/03/11 01:01:04;;;;;;;14.68;12.15;;;6.00;90.60;;;;;;4992322;28;20045;-78
2022/03/11 01:03:30;;;;;;;18.52;12.30;;;6.00;91.00;;;;;;4997283;28;20113;-76
2022/03/11 01:05:59;;;;;;;18.08;11.63;;;5.90;91.40;;;;;;5001889;28;20072;-74
2022/03/11 01:08:24;;;;;;;17.30;12.10;;;5.90;91.80;;;;;;4972508;28;20045;-76
2022/03/11 01:10:50;;;;;;;14.85;10.77;;;5.80;92.10;;;;;;4974301;28;20042;-78
2022/03/11 01:13:16;;;;;;;14.82;11.40;;;5.80;92.30;;;;;;4985210;28;20054;-76
2022/03/11 01:15:42;;;;;;;16.63;11.27;;;5.80;92.50;;;;;;4976695;28;20401;-75
2022/03/11 01:18:08;;;;;;;14.30;11.07;;;5.80;92.90;;;;;;4968020;28;20050;-74
2022/03/11 01:20:34;;;;;;;17.58;11.13;;;5.80;93.20;;;;;;4986107;28;20061;-76
2022/03/11 01:23:00;;;;;;;14.40;10.82;;;5.80;93.20;;;;;;4973650;28;20071;-75
2022/03/11 01:25:28;;;;;;;14.32;12.15;;;5.80;93.40;;;;;;5000771;28;20046;-76
2022/03/11 01:27:54;;;;;;;15.43;12.13;;;5.70;93.90;;;;;;4993180;28;20062;-76
2022/03/11 01:30:23;;;;;;;13.98;11.45;;;5.70;94.30;;;;;;4983545;28;20512;-76
2022/03/11 01:32:48;;;;;;;15.85;11.23;;;5.60;94.60;;;;;;4956190;28;20561;-75
2022/03/11 01:35:15;;;;;;;17.58;11.52;;;5.60;94.80;;;;;;4992973;28;20152;-76
2022/03/11 01:37:41;;;;;;;16.17;10.88;;;5.60;95.00;;;;;;4994774;28;20148;-75
2022/03/11 01:40:07;;;;;;;13.45;11.30;;;5.60;95.20;;;;;;4993223;28;20052;-75
2022/03/11 01:42:34;;;;;;;15.85;11.52;;;5.60;95.50;;;;;;4995967;28;20054;-76
2022/03/11 01:45:00;;;;;;;15.20;10.85;;;5.60;96.10;;;;;;4974886;28;20069;-77
2022/03/11 01:47:26;;;;;;;15.13;11.25;;;5.50;96.20;;;;;;4976788;28;20468;-75
2022/03/11 01:49:52;;;;;;;16.38;11.27;;;5.50;96.40;;;;;;4989780;28;20042;-75
2022/03/11 01:52:18;;;;;;;17.55;11.73;;;5.50;96.70;;;;;;4990404;28;20606;-74
2022/03/11 01:54:44;;;;;;;14.45;11.20;;;5.50;96.90;;;;;;4993576;28;20082;-76
2022/03/11 01:57:12;;;;;;;15.15;11.85;;;5.40;96.90;;;;;;4991423;28;20054;-76
2022/03/11 01:59:38;;;;;;;17.67;12.07;;;5.50;97.20;;;;;;4989536;28;20128;-77
2022/03/11 02:02:06;;;;;;;16.88;11.80;;;5.40;97.50;;;;;;5000878;28;20485;-75
2022/03/11 02:04:31;;;;;;;13.32;10.50;;;5.30;97.90;;;;;;4996377;28;20054;-77
2022/03/11 02:06:57;;;;;;;15.13;11.98;;;5.40;98.20;;;;;;4990987;28;20492;-75
2022/03/11 02:09:24;;;;;;;15.02;11.57;;;5.30;98.70;;;;;;4985759;28;20504;-75
2022/03/11 02:11:50;;;;;;;15.82;11.27;;;5.30;99.00;;;;;;4992462;28;20054;-76
2022/03/11 02:14:16;;;;;;;15.25;12.32;;;5.30;99.20;;;;;;4985748;28;20104;-76
2022/03/11 02:16:42;;;;;;;15.32;11.95;;;5.30;99.40;;;;;;4990928;28;20053;-75
2022/03/11 02:19:08;;;;;;;16.30;12.37;;;5.20;99.80;;;;;;4990129;28;20124;-76
2022/03/11 02:21:46;;;;;;;16.42;12.80;;;5.20;99.90;;;;;;4975806;28;20082;-75
2022/03/11 02:24:12;;;;;;;17.48;13.52;;;5.20;99.90;;;;;;4994120;28;20099;-75
2022/03/11 02:26:38;;;;;;;19.95;12.82;;;5.20;99.90;;;;;;4991247;28;20125;-77
2022/03/11 02:29:05;;;;;;;16.05;12.88;;;5.20;99.90;;;;;;4960630;28;20050;-78
2022/03/11 02:31:32;;;;;;;20.77;12.95;;;5.20;99.90;;;;;;4975279;28;20049;-76
2022/03/11 02:33:59;;;;;;;16.23;12.53;;;5.10;99.90;;;;;;4989497;28;20695;-75
2022/03/11 02:36:26;;;;;;;19.55;13.38;;;5.10;99.90;;;;;;4981782;28;20042;-74
2022/03/11 02:38:52;;;;;;;18.87;13.77;;;5.00;99.90;;;;;;4992178;28;20030;-78
2022/03/11 02:41:18;;;;;;;19.83;13.35;;;5.00;99.90;;;;;;4982273;28;20756;-74
2022/03/11 02:43:44;;;;;;;17.50;13.67;;;5.10;99.90;;;;;;4991657;28;20042;-76
2022/03/11 02:46:11;;;;;;;19.90;13.82;;;5.10;99.90;;;;;;5003421;28;20038;-75
2022/03/11 02:48:37;;;;;;;17.87;13.33;;;5.10;99.90;;;;;;4996890;28;20378;-76
2022/03/11 02:51:04;;;;;;;21.50;14.27;;;5.00;99.90;;;;;;4970659;28;20105;-75
2022/03/11 02:53:33;;;;;;;20.70;14.33;;;5.00;99.90;;;;;;4978017;28;20046;-76
2022/03/11 02:55:59;;;;;;;19.27;14.33;;;4.90;99.90;;;;;;4989286;28;20053;-76
2022/03/11 02:58:24;;;;;;;21.47;15.90;;;4.90;99.90;;;;;;4990007;28;20054;-77
2022/03/11 03:00:50;;;;;;;20.03;14.67;;;4.90;99.90;;;;;;5005497;28;20052;-75
2022/03/11 03:03:16;;;;;;;18.42;15.25;;;4.90;99.90;;;;;;4971631;28;20129;-74
2022/03/11 03:05:44;;;;;;;19.85;15.00;;;4.90;99.90;;;;;;4987536;28;20053;-73
2022/03/11 03:08:10;;;;;;;19.63;15.57;;;4.90;99.90;;;;;;4992735;28;20050;-73
2022/03/11 03:10:36;;;;;;;22.65;15.45;;;4.90;99.90;;;;;;4972312;28;20042;-74
2022/03/11 03:13:02;;;;;;;19.38;15.70;;;4.90;99.90;;;;;;4984748;28;20045;-72
2022/03/11 03:15:28;;;;;;;19.27;15.73;;;4.80;99.90;;;;;;4984621;28;20129;-73
2022/03/11 03:17:54;;;;;;;19.75;15.77;;;4.90;99.90;;;;;;4983688;28;20129;-73
2022/03/11 03:20:20;;;;;;;23.60;15.93;;;4.80;99.90;;;;;;4983623;28;20398;-74
2022/03/11 03:22:46;;;;;;;22.27;17.38;;;4.80;99.90;;;;;;4983904;28;20153;-71
2022/03/11 03:25:12;;;;;;;21.58;16.65;;;4.80;99.90;;;;;;4991603;28;20609;-73
2022/03/11 03:27:37;;;;;;;22.40;16.75;;;4.80;99.90;;;;;;4974892;28;20141;-72
2022/03/11 03:30:06;;;;;;;22.60;17.77;;;4.80;99.90;;;;;;4982948;28;20038;-72
2022/03/11 03:32:32;;;;;;;22.13;16.90;;;4.80;99.90;;;;;;4968001;28;20509;-75
2022/03/11 03:34:58;;;;;;;23.30;16.17;;;4.80;99.90;;;;;;4975895;28;20057;-72
2022/03/11 03:37:24;;;;;;;23.55;16.40;;;4.70;99.90;;;;;;4988615;28;20060;-74
2022/03/11 03:39:49;;;;;;;21.40;17.73;;;4.70;99.90;;;;;;4998811;28;20050;-72
2022/03/11 03:42:15;;;;;;;22.37;18.07;;;4.60;99.90;;;;;;4987994;28;20401;-73
2022/03/11 03:44:41;;;;;;;22.67;18.30;;;4.70;99.90;;;;;;4994461;28;20126;-73
2022/03/11 03:47:07;;;;;;;23.33;18.03;;;4.60;99.90;;;;;;4988372;28;20042;-73
2022/03/11 03:49:34;;;;;;;23.48;18.30;;;4.60;99.90;;;;;;4987232;28;20049;-71
2022/03/11 03:52:01;;;;;;;24.17;17.60;;;4.60;99.90;;;;;;4975181;28;20049;-72
2022/03/11 03:54:27;;;;;;;24.17;18.75;;;4.50;99.90;;;;;;4993024;28;20055;-73
2022/03/11 03:56:52;;;;;;;21.97;17.67;;;4.50;99.90;;;;;;5000850;28;20054;-73
2022/03/11 03:59:18;;;;;;;23.63;18.60;;;4.50;99.90;;;;;;4991000;28;20107;-76
2022/03/11 04:01:45;;;;;;;24.50;18.83;;;4.50;99.90;;;;;;5000097;28;20038;-74
2022/03/11 04:04:11;;;;;;;24.00;18.97;;;4.50;99.90;;;;;;5010628;28;20060;-72
2022/03/11 04:06:39;;;;;;;27.50;19.33;;;4.50;99.90;;;;;;5009751;28;20135;-73
2022/03/11 04:09:07;;;;;;;25.63;20.08;;;4.50;99.90;;;;;;5010216;28;20054;-75
2022/03/11 04:11:33;;;;;;;26.77;19.40;;;4.50;99.90;;;;;;5009534;28;20054;-73
2022/03/11 04:13:59;;;;;;;26.67;20.07;;;4.50;99.90;;;;;;5009870;28;20107;-75
2022/03/11 04:16:28;;;;;;;25.37;21.03;;;4.40;99.90;;;;;;4994188;28;20499;-74
2022/03/11 04:18:54;;;;;;;28.07;19.50;;;4.30;99.90;;;;;;4975815;28;20738;-73
2022/03/11 04:21:20;;;;;;;26.70;20.53;;;4.30;99.90;;;;;;4973984;28;20143;-75
2022/03/11 04:23:48;;;;;;;26.07;19.83;;;4.30;99.90;;;;;;4974235;28;20046;-73
2022/03/11 04:26:14;;;;;;;25.63;20.30;;;4.30;99.90;;;;;;4974144;28;20062;-75
2022/03/11 04:28:40;;;;;;;26.37;21.10;;;4.20;99.90;;;;;;4974047;28;20054;-74
2022/03/11 04:31:08;;;;;;;26.97;20.93;;;4.10;99.90;;;;;;4985459;28;20053;-73
2022/03/11 04:33:34;;;;;;;26.97;21.43;;;4.10;99.90;;;;;;5010305;28;20049;-74
2022/03/11 04:36:01;;;;;;;27.60;22.10;;;4.10;99.90;;;;;;4982502;28;20787;-73
2022/03/11 04:38:27;;;;;;;26.57;22.00;;;4.10;99.90;;;;;;4974352;28;20823;-74
2022/03/11 04:40:52;;;;;;;30.87;22.63;;;4.10;99.90;;;;;;4974415;28;20042;-74
2022/03/11 04:43:19;;;;;;;27.63;21.87;;;4.00;99.90;;;;;;4990410;28;20100;-73
2022/03/11 04:45:45;;;;;;;27.53;22.53;;;4.00;99.90;;;;;;4973878;28;20126;-74
2022/03/11 04:48:11;;;;;;;30.40;23.00;;;4.00;99.90;;;;;;4990264;28;20959;-74
2022/03/11 04:50:38;;;;;;;31.77;24.20;;;3.90;99.90;;;;;;4969410;28;20478;-75
2022/03/11 04:53:04;;;;;;;31.40;23.23;;;3.90;99.90;;;;;;4990565;28;20139;-74
2022/03/11 04:55:30;;;;;;;27.77;23.40;;;3.90;99.90;;;;;;5007026;28;20144;-72
2022/03/11 04:57:56;;;;;;;28.23;22.60;;;3.90;99.90;;;;;;4974591;28;20045;-74
2022/03/11 05:00:22;;;;;;;29.60;23.60;;;3.90;99.90;;;;;;5005422;28;20085;-73
2022/03/11 05:02:48;;;;;;;34.60;24.60;;;3.90;99.90;;;;;;4986267;28;20054;-75
2022/03/11 05:05:15;;;;;;;29.23;23.60;;;3.90;99.90;;;;;;4987007;28;20042;-74
2022/03/11 05:07:42;;;;;;;32.00;24.60;;;3.90;99.90;;;;;;4982023;28;20039;-73
2022/03/11 05:10:10;;;;;;;31.47;24.40;;;3.80;99.90;;;;;;4986903;28;20057;-72
2022/03/11 05:12:37;;;;;;;29.90;24.07;;;3.80;99.90;;;;;;4986523;28;20054;-74
2022/03/11 05:15:04;;;;;;;31.63;24.20;;;3.80;99.90;;;;;;4986878;28;20112;-74
2022/03/11 05:17:30;;;;;;;30.73;25.03;;;3.80;99.90;;;;;;4986126;28;20109;-73
2022/03/11 05:19:56;;;;;;;33.63;24.80;;;3.70;99.90;;;;;;4985892;28;20042;-72
2022/03/11 05:22:22;;;;;;;31.30;24.87;;;3.70;99.90;;;;;;4969889;28;20092;-73
2022/03/11 05:24:48;;;;;;;33.70;24.87;;;3.70;99.90;;;;;;4993859;28;20038;-76
2022/03/11 05:27:14;;;;;;;32.73;24.83;;;3.60;99.90;;;;;;4987067;28;20065;-74
2022/03/11 05:29:40;;;;;;;30.40;23.67;;;3.60;99.90;;;;;;4985934;28;20467;-74
2022/03/11 05:32:07;;;;;;;31.13;25.03;;;3.60;99.90;;;;;;4986536;28;20054;-75
2022/03/11 05:34:34;;;;;;;31.50;23.77;;;3.60;99.90;;;;;;4969353;28;20046;-74
2022/03/11 05:37:00;;;;;;;31.30;24.60;;;3.60;99.90;;;;;;4973348;28;20126;-75
2022/03/11 05:39:26;;;;;;;30.43;23.67;;;3.50;99.90;;;;;;5005764;28;20099;-74
2022/03/11 05:41:52;;;;;;;30.77;24.90;;;3.60;99.90;;;;;;5005679;28;20168;-73
2022/03/11 05:44:18;;;;;;;31.93;25.07;;;3.60;99.90;;;;;;4974825;28;20061;-73
2022/03/11 05:46:45;;;;;;;31.03;24.80;;;3.50;99.90;;;;;;4985604;28;20045;-74
2022/03/11 05:49:12;;;;;;;33.43;26.10;;;3.50;99.90;;;;;;4969790;28;20051;-74
2022/03/11 05:51:38;;;;;;;32.33;24.63;;;3.50;99.90;;;;;;4975169;28;20475;-71
2022/03/11 05:54:05;;;;;;;32.73;26.17;;;3.40;99.90;;;;;;4969968;28;20039;-72
2022/03/11 05:56:31;;;;;;;31.53;25.67;;;3.40;99.90;;;;;;4954141;28;20054;-71
2022/03/11 05:58:58;;;;;;;32.53;25.37;;;3.40;99.90;;;;;;5002298;28;20162;-71
2022/03/11 06:01:23;;;;;;;33.43;25.27;;;3.40;99.90;;;;;;4980338;28;20050;-72
2022/03/11 06:03:49;;;;;;;34.00;26.50;;;3.40;99.90;;;;;;4989489;28;20092;-76
2022/03/11 06:06:15;;;;;;;35.27;27.20;;;3.30;99.90;;;;;;4993875;28;20081;-73
2022/03/11 06:08:42;;;;;;;32.70;26.40;;;3.40;99.90;;;;;;5005557;28;20065;-75
2022/03/11 06:11:09;;;;;;;32.80;26.03;;;3.20;99.90;;;;;;5005798;28;20042;-75
2022/03/11 06:13:35;;;;;;;33.47;26.17;;;3.20;99.90;;;;;;5005269;28;20066;-74
2022/03/11 06:16:04;;;;;;;32.03;26.33;;;3.20;99.90;;;;;;4988896;28;20077;-74
2022/03/11 06:18:30;;;;;;;34.33;27.70;;;3.20;99.90;;;;;;4975120;28;20049;-74
2022/03/11 06:20:57;;;;;;;30.87;26.03;;;3.30;99.90;;;;;;4969407;28;20057;-74
2022/03/11 06:23:24;;;;;;;31.23;26.30;;;3.30;99.90;;;;;;4953120;28;20480;-74
2022/03/11 06:25:50;;;;;;;33.00;26.23;;;3.30;99.90;;;;;;4969119;28;20501;-73
2022/03/11 06:28:15;;;;;;;34.50;26.43;;;3.40;99.90;;;;;;4968369;28;20593;-73
2022/03/11 06:30:42;;;;;;;33.23;25.47;;;3.40;99.90;;;;;;4978163;28;20085;-74
2022/03/11 06:33:09;;;;;;;31.77;26.03;;;3.40;99.90;;;;;;4968112;28;20046;-74
2022/03/11 06:35:35;;;;;;;33.70;26.40;;;3.40;99.90;;;;;;4987988;28;20049;-74
2022/03/11 06:38:01;;;;;;;33.60;25.87;;;3.40;99.90;;;;;;5004728;28;20049;-73
2022/03/11 06:40:27;;;;;;;33.63;26.23;;;3.40;99.90;;;;;;4997111;28;20050;-75
2022/03/11 06:42:53;;;;;;;32.57;26.53;;;3.40;99.90;;;;;;4987607;28;20543;-74
2022/03/11 06:45:19;;;;;;;34.37;26.90;;;3.40;99.90;;;;;;4992852;28;20481;-75
2022/03/11 06:47:46;;;;;;;31.00;26.43;;;3.50;99.90;;;;;;4989988;28;20082;-74
2022/03/11 06:50:13;;;;;;;31.27;25.27;;;3.50;99.90;;;;;;4981569;28;20176;-74
2022/03/11 06:52:39;;;;;;;32.57;25.53;;;3.50;99.90;;;;;;4969034;28;20102;-74
2022/03/11 06:55:06;;;;;;;31.67;25.57;;;3.50;99.90;;;;;;4950695;28;20046;-73
2022/03/11 06:57:32;;;;;;;33.40;26.37;;;3.60;99.90;;;;;;4974652;28;20229;-73
2022/03/11 07:00:03;;;;;;;32.50;25.80;;;3.60;99.90;;;;;;4966201;28;20046;-75
2022/03/11 07:02:30;;;;;;;32.00;25.60;;;3.70;99.90;;;;;;4997745;28;20516;-75
2022/03/11 07:04:56;;;;;;;29.90;24.70;;;3.70;99.90;;;;;;4970932;28;20045;-72
2022/03/11 07:07:22;;;;;;;30.20;24.93;;;3.70;99.90;;;;;;4969116;28;20042;-74
2022/03/11 07:09:48;;;;;;;27.73;23.83;;;3.80;99.90;;;;;;4971989;28;20096;-73
2022/03/11 07:12:14;;;;;;;33.70;25.17;;;3.80;99.90;;;;;;4955691;28;20042;-74
2022/03/11 07:14:41;;;;;;;30.47;24.80;;;3.90;99.90;;;;;;4953448;28;20262;-74
2022/03/11 07:17:08;;;;;;;28.47;23.30;;;3.90;99.90;;;;;;4975472;28;20124;-74
2022/03/11 07:19:34;;;;;;;31.80;24.73;;;4.00;99.90;;;;;;4965097;28;20459;-74
2022/03/11 07:22:05;;;;;;;28.73;23.30;;;4.10;99.90;;;;;;4966414;28;20043;-74
2022/03/11 07:24:31;;;;;;;30.25;24.10;;;4.10;99.90;;;;;;4996638;28;20073;-73
2022/03/11 07:26:57;;;;;;;28.83;24.60;;;4.20;99.90;;;;;;4965899;28;20126;-71
2022/03/11 07:29:23;;;;;;;31.27;24.60;;;4.30;99.90;;;;;;4963329;28;20457;-73
2022/03/11 07:31:49;;;;;;;30.10;24.10;;;4.40;99.90;;;;;;4969966;28;20165;-77
2022/03/11 07:34:16;;;;;;;30.27;23.70;;;4.50;99.90;;;;;;4982633;28;20062;-76
2022/03/11 07:36:42;;;;;;;30.13;23.30;;;4.60;99.90;;;;;;4971424;28;20058;-73
2022/03/11 07:39:08;;;;;;;29.48;22.98;;;4.70;99.90;;;;;;4998139;28;20042;-73
2022/03/11 07:41:35;;;;;;;27.80;22.60;;;4.80;99.90;;;;;;4966551;28;20448;-74
2022/03/11 07:44:01;;;;;;;27.20;22.90;;;4.90;99.90;;;;;;4965642;28;20069;-74
2022/03/11 07:46:29;;;;;;;27.40;22.65;;;5.00;99.90;;;;;;4989823;28;20046;-73
2022/03/11 07:48:58;;;;;;;30.92;22.52;;;5.20;99.90;;;;;;4985340;28;20104;-74
2022/03/11 07:51:25;;;;;;;28.23;22.40;;;5.30;99.90;;;;;;4969988;28;20056;-73
2022/03/11 07:53:51;;;;;;;30.00;22.85;;;5.40;99.90;;;;;;4979633;28;20563;-73
2022/03/11 07:56:17;;;;;;;31.00;22.77;;;5.40;99.90;;;;;;4956523;28;20065;-73
2022/03/11 07:58:43;;;;;;;29.13;22.52;;;5.50;99.90;;;;;;4977235;28;20579;-74
2022/03/11 08:01:10;;;;;;;27.25;21.77;;;5.50;99.90;;;;;;4982383;28;20578;-73
2022/03/11 08:03:37;;;;;;;27.98;21.90;;;5.60;99.90;;;;;;4972626;28;20441;-74
2022/03/11 08:06:04;;;;;;;29.05;22.73;;;5.70;99.90;;;;;;4966480;28;20046;-73
2022/03/11 08:08:30;;;;;;;36.30;24.70;;;5.80;99.30;;;;;;4967497;28;20481;-74
2022/03/11 08:10:59;;;;;;;27.55;21.58;;;6.00;97.90;;;;;;4982575;28;20052;-74
2022/03/11 08:13:26;;;;;;;29.60;22.30;;;6.10;97.60;;;;;;4971230;28;20043;-73
2022/03/11 08:15:53;;;;;;;26.98;20.80;;;6.20;97.30;;;;;;4968573;28;20041;-75
2022/03/11 08:18:20;;;;;;;29.48;21.35;;;6.40;97.10;;;;;;4973095;28;20144;-72
2022/03/11 08:20:46;;;;;;;26.30;20.05;;;6.50;96.00;;;;;;5000938;28;20038;-74
2022/03/11 08:23:12;;;;;;;27.48;21.45;;;6.60;94.70;;;;;;4970991;28;20042;-74
2022/03/11 08:25:38;;;;;;;26.35;21.33;;;6.70;94.90;;;;;;4968714;28;20054;-77
2022/03/11 08:28:12;;;;;;;30.38;21.48;;;6.90;93.80;;;;;;4975539;28;20054;-73
2022/03/11 08:30:38;;;;;;;28.35;21.60;;;6.90;93.40;;;;;;4999391;28;20161;-76
2022/03/11 08:33:04;;;;;;;26.55;21.00;;;7.00;93.80;;;;;;4975397;28;20128;-77
2022/03/11 08:35:30;;;;;;;27.77;21.50;;;7.10;93.70;;;;;;4963970;28;20316;-75
2022/03/11 08:37:56;;;;;;;27.10;20.60;;;7.30;92.40;;;;;;4989260;28;20133;-74
2022/03/11 08:40:24;;;;;;;26.40;20.50;;;7.30;91.90;;;;;;4989468;28;20142;-73
2022/03/11 08:42:53;;;;;;;28.23;21.00;;;7.40;91.50;;;;;;4953523;28;20077;-76
2022/03/11 08:45:21;;;;;;;28.52;20.70;;;7.50;90.60;;;;;;4998031;28;20892;-75
2022/03/11 08:47:47;;;;;;;27.60;21.67;;;7.60;90.90;;;;;;4972663;28;20395;-75
2022/03/11 08:50:14;;;;;;;26.77;20.42;;;7.60;90.70;;;;;;4973897;28;20057;-75
2022/03/11 08:52:40;;;;;;;28.15;21.55;;;7.60;90.00;;;;;;4988100;28;20056;-74
2022/03/11 08:55:06;;;;;;;27.50;19.88;;;7.70;90.20;;;;;;4960359;28;20100;-77
2022/03/11 08:57:32;;;;;;;25.60;20.67;;;7.80;88.90;;;;;;4986542;28;20210;-75
2022/03/11 08:59:58;;;;;;;25.85;19.80;;;7.80;87.10;;;;;;4970717;28;20486;-75
2022/03/11 09:02:24;;;;;;;27.98;21.38;;;7.80;87.30;;;;;;4990045;28;20045;-76
2022/03/11 09:04:50;;;;;;;25.88;20.67;;;7.80;86.40;;;;;;4995398;28;20050;-71
2022/03/11 09:07:15;;;;;;;24.52;19.33;;;7.90;88.20;;;;;;4976602;28;20240;-75
2022/03/11 09:09:41;;;;;;;28.90;20.63;;;8.00;84.50;;;;;;4967292;28;20100;-75
2022/03/11 09:12:07;;;;;;;26.13;20.67;;;8.00;85.30;;;;;;4976773;28;20102;-72
2022/03/11 09:14:34;;;;;;;25.55;20.25;;;8.00;84.60;;;;;;4973473;28;20053;-73
2022/03/11 09:17:00;;;;;;;26.30;19.80;;;8.10;85.50;;;;;;4949922;28;20823;-74
2022/03/11 09:19:29;;;;;;;25.02;20.15;;;8.20;84.00;;;;;;4982600;28;20038;-77
2022/03/11 09:21:54;;;;;;;26.00;19.88;;;8.20;83.30;;;;;;4989373;28;20764;-73
2022/03/11 09:24:20;;;;;;;25.73;19.40;;;8.20;83.40;;;;;;4955994;28;20125;-74
2022/03/11 09:26:47;;;;;;;26.83;20.58;;;8.30;81.10;;;;;;4951137;28;20078;-75
2022/03/11 09:29:14;;;;;;;25.15;20.23;;;8.30;81.90;;;;;;4965214;28;20046;-72
2022/03/11 09:31:39;;;;;;;27.13;20.52;;;8.30;80.50;;;;;;4984502;28;20054;-75
2022/03/11 09:34:05;;;;;;;27.63;20.33;;;8.30;79.90;;;;;;4973473;28;20042;-75
2022/03/11 09:36:32;;;;;;;25.88;19.60;;;8.30;80.50;;;;;;4985978;28;20080;-74
2022/03/11 09:38:58;;;;;;;26.67;20.38;;;8.40;78.00;;;;;;4967842;28;20042;-74
2022/03/11 09:41:29;;;;;;;27.83;20.77;;;8.40;79.90;;;;;;4960556;28;20538;-76
2022/03/11 09:43:56;;;;;;;27.48;20.23;;;8.50;80.10;;;;;;4965248;28;20362;-75
2022/03/11 09:46:23;;;;;;;25.65;19.45;;;8.50;77.30;;;;;;4987198;28;20050;-76
2022/03/11 09:48:49;;;;;;;25.80;20.25;;;8.50;77.00;;;;;;4985045;28;20042;-76
2022/03/11 09:51:17;;;;;;;26.15;20.02;;;8.50;76.40;;;;;;4974768;28;20111;-77
2022/03/11 09:53:42;;;;;;;27.48;20.33;;;8.60;76.40;;;;;;4969997;28;20054;-76
2022/03/11 09:56:08;;;;;;;27.67;20.40;;;8.60;76.90;;;;;;4970421;28;20049;-75
2022/03/11 09:58:35;;;;;;;25.05;19.95;;;8.70;76.40;;;;;;4981732;28;20091;-76
2022/03/11 10:01:01;;;;;;;23.50;19.60;;;8.70;76.30;;;;;;4979544;28;20121;-75
2022/03/11 10:03:30;;;;;;;28.48;21.25;;;8.70;74.60;;;;;;4991741;28;20069;-75
2022/03/11 10:05:56;;;;;;;25.63;20.07;;;8.60;74.00;;;;;;4991904;28;20045;-75
2022/03/11 10:08:32;;;;;;;25.63;19.80;;;8.60;74.80;;;;;;4994398;28;20057;-75
2022/03/11 10:11:20;;;;;;;26.83;21.05;;;8.60;73.80;;;;;;4989707;28;20069;-75
2022/03/11 10:13:46;;;;;;;26.75;20.75;;;8.60;73.80;;;;;;4990951;28;20085;-76
2022/03/11 10:16:25;;;;;;;27.42;21.35;;;8.60;75.20;;;;;;4977968;28;20485;-76
2022/03/11 10:19:09;;;;;;;26.95;20.42;;;8.70;74.40;;;;;;4988780;28;20060;-75
2022/03/11 10:21:45;;;;;;;25.75;21.23;;;8.70;75.40;;;;;;4986830;28;20088;-73
2022/03/11 10:24:16;;;;;;;29.25;21.13;;;8.90;75.40;;;;;;4987842;28;20516;-76
2022/03/11 10:26:46;;;;;;;26.35;21.30;;;9.00;74.50;;;;;;4988922;28;20085;-73
2022/03/11 10:29:17;;;;;;;27.67;19.85;;;9.10;74.30;;;;;;4973817;28;20096;-73
2022/03/11 10:31:43;;;;;;;;;;;9.10;74.20;;;;;;4966345;28;20469;-73
2022/03/11 10:34:20;;;;;;;27.88;21.40;;;9.20;74.90;;;;;;5009934;28;19921;-71
2022/03/11 10:37:02;;;;;;;30.67;21.08;;;9.30;72.20;;;;;;4979723;28;20046;-73
2022/03/11 10:39:30;;;;;;;28.92;21.88;;;9.30;71.40;;;;;;4970448;28;20046;-73
2022/03/11 10:41:58;;;;;;;26.02;20.23;;;9.20;72.40;;;;;;4998826;28;20046;-73
2022/03/11 10:44:27;;;;;;;29.67;20.73;;;9.30;70.50;;;;;;5000962;28;20136;-78
2022/03/11 10:47:20;;;;;;;27.17;21.70;;;9.20;71.10;;;;;;4995859;28;20070;-74
2022/03/11 10:49:54;;;;;;;27.88;21.50;;;9.30;71.50;;;;;;4985364;28;20118;-76
2022/03/11 10:52:35;;;;;;;27.02;19.95;;;9.40;70.40;;;;;;4996962;28;20053;-76
2022/03/11 10:55:22;;;;;;;27.42;21.58;;;9.50;70.10;;;;;;4987908;28;20046;-76
2022/03/11 10:57:48;;;;;;;28.10;20.33;;;9.50;69.10;;;;;;4976584;28;20145;-74
2022/03/11 11:00:23;;;;;;;28.20;21.10;;;9.60;68.50;;;;;;4966877;28;20046;-76
2022/03/11 11:02:54;;;;;;;24.58;19.08;;;9.60;67.50;;;;;;4972340;28;20978;-74
2022/03/11 11:05:20;;;;;;;25.35;20.20;;;9.60;68.60;;;;;;4983851;28;20108;-78
2022/03/11 11:07:47;;;;;;;28.45;21.27;;;9.70;67.40;;;;;;4973120;28;20038;-73
2022/03/11 11:10:18;;;;;;;27.15;22.30;;;9.70;67.80;;;;;;4977214;28;20506;-76
2022/03/11 11:12:45;;;;;;;26.95;20.17;;;9.70;68.40;;;;;;4975071;28;20149;-72
2022/03/11 11:15:12;;;;;;;27.52;20.00;;;9.90;66.90;;;;;;4983703;28;20038;-75
2022/03/11 11:17:42;;;;;;;26.42;20.88;;;10.00;66.90;;;;;;4971519;28;20121;-76
2022/03/11 11:20:14;;;;;;;;;;;10.00;66.20;;;;;;4970747;28;20038;-72
2022/03/11 11:22:41;;;;;;;26.00;19.83;;;10.10;66.50;;;;;;4965076;28;19976;-72
2022/03/11 11:25:08;;;;;;;26.38;20.55;;;10.10;65.90;;;;;;4965797;28;20603;-75
2022/03/11 11:27:35;;;;;;;25.90;19.73;;;10.20;65.50;;;;;;4969548;28;20062;-75
2022/03/11 11:30:02;;;;;;;24.08;18.35;;;10.30;64.80;;;;;;4985108;28;20065;-73
2022/03/11 11:32:28;;;;;;;26.15;20.67;;;10.40;63.70;;;;;;4979785;28;20520;-73
2022/03/11 11:34:54;;;;;;;26.27;20.15;;;10.30;63.80;;;;;;4980929;28;20590;-74
2022/03/11 11:37:39;;;;;;;25.25;20.10;;;10.40;65.00;;;;;;4983526;28;20060;-72
2022/03/11 11:40:32;;;;;;;25.90;18.42;;;10.40;63.70;;;;;;4954092;28;20412;-71
2022/03/11 11:43:28;;;;;;;24.58;19.13;;;10.60;62.10;;;;;;4986374;28;20261;-72
2022/03/11 11:46:06;;;;;;;25.13;19.38;;;10.80;60.70;;;;;;4964638;28;20604;-71
2022/03/11 11:48:32;;;;;;;25.33;20.05;;;10.70;61.10;;;;;;4987082;28;20050;-73
2022/03/11 11:51:03;;;;;;;22.65;18.17;;;10.80;61.60;;;;;;4966952;28;20436;-75
2022/03/11 11:53:50;;;;;;;22.77;18.35;;;10.90;61.70;;;;;;4953892;28;20065;-75
2022/03/11 11:56:29;;;;;;;23.85;17.95;;;11.00;60.70;;;;;;4990864;28;20104;-73
2022/03/11 11:59:02;;;;;;;25.40;18.38;;;11.10;59.30;;;;;;4983725;28;20121;-76
2022/03/11 12:01:47;;;;;;;22.63;18.10;;;11.00;58.50;;;;;;4972137;28;20108;-78
2022/03/11 12:04:19;;;;;;;23.80;17.75;;;11.10;57.20;;;;;;4987890;28;20501;-76
2022/03/11 12:06:59;;;;;;;23.58;17.27;;;11.10;58.10;;;;;;4974137;28;20052;-76
2022/03/11 12:12:15;;;;;;;21.85;16.83;;;11.20;57.00;;;;;;4991434;28;20054;-75
2022/03/11 12:15:08;;;;;;;23.17;18.00;;;11.30;55.90;;;;;;4983502;28;20491;-74
2022/03/11 12:17:38;;;;;;;24.38;18.00;;;11.30;56.60;;;;;;4983642;28;20055;-75
2022/03/11 12:20:24;;;;;;;21.13;17.30;;;11.40;56.70;;;;;;4970471;28;20045;-73
2022/03/11 12:23:09;;;;;;;23.75;17.85;;;11.50;55.60;;;;;;4985030;28;20043;-73
2022/03/11 12:25:36;;;;;;;22.70;17.35;;;11.60;56.70;;;;;;4987379;28;20045;-76
2022/03/11 12:28:07;;;;;;;22.77;17.55;;;11.70;55.50;;;;;;4982030;28;20497;-76
2022/03/11 12:30:34;;;;;;;;;;;11.80;56.30;;;;;;4986295;28;20065;-75
2022/03/11 12:33:06;;;;;;;22.85;16.55;;;11.80;54.70;;;;;;4972235;28;19931;-74
2022/03/11 12:35:32;;;;;;;20.95;16.70;;;11.90;54.20;;;;;;4988206;28;20405;-73
2022/03/11 12:37:58;;;;;;;23.70;17.60;;;11.90;54.10;;;;;;4971423;28;20070;-77
2022/03/11 12:40:28;;;;;;;22.35;16.85;;;11.90;53.90;;;;;;4987840;28;20413;-75
2022/03/11 12:42:59;;;;;;;25.05;17.50;;;12.00;54.90;;;;;;5004087;28;20089;-77